Aviation Digital Data Service (ADDS)

Output produced by TAFs form (2131 UTC 17 July 2018)
found at http://www.aviationweather.gov/adds/tafs/
 
EGPD 172120Z VRB03KT 9999 VCSH FEW015 SCT049 13/12 Q1013
TAF EGPD 171702Z 1718/1818 VRB05KT 9999 FEW020 SCT040 
     TEMPO 1718/1722 6000 SHRA 
     PROB30 
     TEMPO 1718/1720 4000 +SHRA BKN012CB 
     PROB30 
     TEMPO 1809/1818 6000 SHRA